Time;durP1;ratioP1;P1;durP2;ratioP2;P2;SDS_P1;SDS_P2;PMS_P1;PMS_P2;Temp;Humidity;BMP_temperature;BMP_pressure;BME280_temperature;BME280_humidity;BME280_pressure;Samples;Min_cycle;Max_cycle;Signal;HPM_P1;HPM_P2
2023/11/15 09:19:40;;;;;;;3.80;2.00;;;;;;;9.17;100.00;97939.79;265097;1305;545083;-86
2023/11/15 09:25:43;;;;;;;4.40;2.20;;;;;;;9.10;100.00;97949.99;270367;1282;22421;-86
2023/11/15 09:31:44;;;;;;;4.00;2.10;;;;;;;9.08;100.00;97963.48;266425;1280;5400515;-87
2023/11/15 09:38:45;;;;;;;4.90;2.40;;;;;;;9.06;100.00;97970.83;272230;1272;22418;-86
2023/11/15 09:45:04;;;;;;;4.40;2.50;;;;;;;9.08;100.00;97975.89;272267;1271;23415;-88
2023/11/15 09:51:24;;;;;;;4.30;2.40;;;;;;;9.13;100.00;97983.46;270718;1272;22366;-88
2023/11/15 09:58:11;;;;;;;;;;;;;;;;;;;;;
2023/11/15 10:04:44;;;;;;;3.60;2.70;;;;;;;9.16;100.00;98000.00;271217;1273;22419;-86
2023/11/15 10:10:47;;;;;;;7.00;3.40;;;;;;;9.16;100.00;98002.73;271649;1270;22298;-88
2023/11/15 10:16:49;;;;;;;5.30;3.00;;;;;;;9.16;100.00;98009.05;270826;1272;22663;-87
2023/11/15 10:22:55;;;;;;;4.10;2.80;;;;;;;9.18;100.00;98021.84;270925;1272;22288;-87
2023/11/15 10:29:12;;;;;;;3.20;2.10;;;;;;;9.20;100.00;98025.04;271785;1273;23036;-89
2023/11/15 10:35:27;;;;;;;4.00;2.80;;;;;;;9.23;100.00;98023.55;272642;1273;23164;-88
2023/11/15 10:41:30;;;;;;;6.00;3.10;;;;;;;9.28;100.00;98026.92;271646;1266;22244;-88
2023/11/15 10:47:57;;;;;;;7.40;4.40;;;;;;;9.40;100.00;98033.25;271791;1273;24306;-88
2023/11/15 10:54:34;;;;;;;6.40;4.70;;;;;;;9.47;100.00;98029.42;270530;1269;22431;-87
2023/11/15 11:00:38;;;;;;;7.40;4.60;;;;;;;9.45;100.00;98037.48;270554;1266;22619;-87
2023/11/15 11:06:50;;;;;;;10.60;4.70;;;;;;;9.36;100.00;98041.83;271283;1272;22397;-87
2023/11/15 11:13:18;;;;;;;6.00;4.30;;;;;;;9.28;100.00;98049.17;272600;1278;22304;-88
2023/11/15 11:19:22;;;;;;;8.50;5.00;;;;;;;9.25;100.00;98055.17;272053;1267;23362;-89
2023/11/15 11:25:41;;;;;;;6.50;4.40;;;;;;;9.22;100.00;98053.60;272366;1273;22203;-86
2023/11/15 11:32:20;;;;;;;8.30;5.40;;;;;;;9.30;100.00;98063.36;272121;1273;22873;-89
2023/11/15 11:38:41;;;;;;;7.10;5.20;;;;;;;9.37;100.00;98075.79;270252;1267;23535;-88
2023/11/15 11:45:12;;;;;;;8.70;4.90;;;;;;;9.35;100.00;98084.12;269747;1267;22547;-87
2023/11/15 11:51:17;;;;;;;9.60;5.40;;;;;;;9.27;100.00;98091.92;269757;1273;22609;-86
2023/11/15 11:57:20;;;;;;;7.30;4.80;;;;;;;9.19;100.00;98095.41;272261;1273;22791;-88
2023/11/15 12:03:22;;;;;;;5.90;4.70;;;;;;;9.14;100.00;98100.00;272255;1273;22366;-87
2023/11/15 12:09:25;;;;;;;6.50;4.20;;;;;;;9.13;100.00;98104.54;272986;1280;22278;-88
2023/11/15 12:15:35;;;;;;;9.60;5.50;;;;;;;9.13;100.00;98111.71;272500;1267;22408;-86
2023/11/15 12:21:43;;;;;;;6.90;4.20;;;;;;;9.16;100.00;98111.65;272315;1273;22277;-88
2023/11/15 12:27:46;;;;;;;5.70;3.10;;;;;;;9.20;100.00;98120.85;272280;1265;22348;-87
2023/11/15 12:33:49;;;;;;;5.30;3.20;;;;;;;9.24;100.00;98127.50;272455;1272;23317;-86
2023/11/15 12:39:51;;;;;;;6.40;3.90;;;;;;;9.33;100.00;98125.41;270994;1268;22341;-88
2023/11/15 12:45:58;;;;;;;9.00;3.90;;;;;;;9.40;100.00;98140.33;272712;1269;22174;-86
2023/11/15 12:52:00;;;;;;;;;;;;;;;9.53;100.00;98141.59;272905;1273;22408;-86
2023/11/15 12:58:02;;;;;;;4.60;2.50;;;;;;;9.61;100.00;98153.33;272234;1269;22646;-86
2023/11/15 13:04:07;;;;;;;5.50;2.70;;;;;;;9.53;100.00;98162.44;271519;1271;22342;-85
2023/11/15 13:10:10;;;;;;;3.70;2.10;;;;;;;9.49;100.00;98153.92;272378;1273;23243;-86
2023/11/15 13:16:12;;;;;;;3.70;2.40;;;;;;;9.51;100.00;98158.70;272415;1272;22300;-85
2023/11/15 13:22:15;;;;;;;5.40;2.50;;;;;;;9.48;100.00;98159.94;272244;1266;22294;-83
2023/11/15 13:28:18;;;;;;;4.00;2.10;;;;;;;9.47;100.00;98163.99;272327;1273;23288;-87
2023/11/15 13:34:31;;;;;;;3.40;1.70;;;;;;;9.44;100.00;98169.45;271273;1260;24713;-86
2023/11/15 13:40:33;;;;;;;4.50;1.70;;;;;;;9.35;100.00;98173.48;271342;1266;22553;-87
2023/11/15 13:46:37;;;;;;;3.40;1.70;;;;;;;9.25;100.00;98182.90;270680;1272;22206;-86
2023/11/15 13:52:39;;;;;;;5.30;2.10;;;;;;;9.22;100.00;98187.34;271592;1269;22296;-86
2023/11/15 13:58:42;;;;;;;5.00;2.20;;;;;;;9.24;100.00;98196.93;271910;1273;23142;-86
2023/11/15 14:04:43;;;;;;;5.10;2.40;;;;;;;9.21;100.00;98204.10;271780;1273;22456;-85
2023/11/15 14:10:45;;;;;;;4.80;1.90;;;;;;;9.15;100.00;98216.72;272399;1273;22354;-85
2023/11/15 14:16:47;;;;;;;3.60;1.90;;;;;;;9.14;100.00;98223.20;271479;1273;22205;-86
2023/11/15 14:22:49;;;;;;;3.40;2.30;;;;;;;9.11;100.00;98231.92;272852;1273;22195;-84
2023/11/15 14:28:52;;;;;;;5.20;2.50;;;;;;;9.07;100.00;98235.55;272347;1273;22322;-84
2023/11/15 14:34:54;;;;;;;5.80;2.80;;;;;;;9.04;100.00;98230.72;272319;1273;23528;-86
2023/11/15 14:40:57;;;;;;;7.90;3.00;;;;;;;8.97;100.00;98232.79;272413;1273;22309;-85
2023/11/15 14:46:59;;;;;;;5.80;3.10;;;;;;;8.88;100.00;98237.80;272429;1272;23248;-85
2023/11/15 14:59:26;;;;;;;5.30;3.00;;;;;;;8.74;100.00;98280.13;272387;1273;22331;-85
2023/11/15 15:05:28;;;;;;;6.50;3.50;;;;;;;8.72;100.00;98302.09;271110;1272;22338;-85
2023/11/15 15:11:32;;;;;;;6.50;3.60;;;;;;;8.72;100.00;98319.02;271901;1273;22462;-85
2023/11/15 15:17:37;;;;;;;4.10;2.10;;;;;;;8.68;100.00;98338.55;270979;1272;22324;-85
2023/11/15 15:24:19;;;;;;;4.30;2.20;;;;;;;8.65;100.00;98355.45;271709;1266;25300;-85
2023/11/15 15:30:24;;;;;;;3.30;1.60;;;;;;;8.60;100.00;98369.27;272915;1272;22198;-84
2023/11/15 15:36:44;;;;;;;5.20;2.20;;;;;;;8.56;100.00;98379.06;271283;1264;22953;-86
2023/11/15 15:42:46;;;;;;;7.90;2.90;;;;;;;8.52;100.00;98390.94;271521;1273;22324;-84
2023/11/15 15:48:50;;;;;;;6.00;2.70;;;;;;;8.48;100.00;98393.48;269982;1273;22233;-84
2023/11/15 15:54:52;;;;;;;8.20;3.60;;;;;;;8.45;100.00;98397.35;272250;1272;22183;-84
2023/11/15 16:00:54;;;;;;;10.70;4.70;;;;;;;8.40;100.00;98404.16;272206;1273;22405;-86
2023/11/15 16:06:56;;;;;;;6.20;2.90;;;;;;;8.35;100.00;98409.25;272262;1273;22496;-86
2023/11/15 16:12:58;;;;;;;5.50;2.70;;;;;;;8.33;100.00;98424.09;272295;1272;22342;-85
2023/11/15 16:19:00;;;;;;;6.50;2.80;;;;;;;8.31;100.00;98439.75;272369;1272;22200;-86
2023/11/15 16:25:23;;;;;;;5.20;2.70;;;;;;;8.29;100.00;98446.02;272331;1269;22269;-85
2023/11/15 16:31:25;;;;;;;5.20;2.30;;;;;;;8.26;100.00;98462.98;272305;1272;23056;-87
2023/11/15 16:37:27;;;;;;;5.80;2.10;;;;;;;8.24;100.00;98477.37;271001;1272;22590;-85
2023/11/15 16:43:35;;;;;;;4.60;2.00;;;;;;;8.21;100.00;98494.59;271703;1272;23016;-85
2023/11/15 16:49:41;;;;;;;5.20;2.60;;;;;;;8.19;100.00;98508.66;272580;1272;22407;-85
2023/11/15 16:55:44;;;;;;;4.60;2.60;;;;;;;8.17;100.00;98515.81;272120;1269;22232;-84
2023/11/15 17:01:46;;;;;;;9.10;2.80;;;;;;;8.16;100.00;98520.48;257097;1272;20002412;-88
2023/11/15 17:07:48;;;;;;;8.40;3.00;;;;;;;8.14;100.00;98527.93;272136;1272;23865;-87
2023/11/15 17:13:51;;;;;;;4.70;2.30;;;;;;;8.12;100.00;98522.99;272239;1272;22471;-87
2023/11/15 17:19:53;;;;;;;5.30;2.20;;;;;;;8.10;100.00;98526.62;272256;1272;22447;-86
2023/11/15 17:25:55;;;;;;;6.00;2.60;;;;;;;8.07;100.00;98528.92;272144;1271;23314;-85
2023/11/15 17:31:59;;;;;;;5.60;3.10;;;;;;;8.05;100.00;98531.39;272106;1272;22788;-86
2023/11/15 17:38:01;;;;;;;5.80;3.10;;;;;;;8.03;100.00;98541.41;272894;1272;22333;-86
2023/11/15 17:44:04;;;;;;;6.80;3.00;;;;;;;8.02;100.00;98551.29;272363;1272;22347;-85
2023/11/15 17:50:08;;;;;;;5.90;2.90;;;;;;;8.01;100.00;98561.48;272055;1272;22686;-85
2023/11/15 17:56:27;;;;;;;9.40;2.90;;;;;;;7.99;100.00;98574.70;271675;1272;22319;-86
2023/11/15 18:02:29;;;;;;;6.30;3.10;;;;;;;7.99;100.00;98580.07;272316;1272;22331;-85
2023/11/15 18:08:52;;;;;;;7.40;3.40;;;;;;;7.97;100.00;98583.70;272482;1272;22205;-87
2023/11/15 18:15:01;;;;;;;4.70;2.60;;;;;;;7.93;100.00;98587.30;271971;1272;22501;-85
2023/11/15 18:21:03;;;;;;;5.60;3.20;;;;;;;7.89;100.00;98591.98;272457;1272;23376;-85
2023/11/15 18:27:06;;;;;;;6.80;3.20;;;;;;;7.87;100.00;98602.94;272444;1272;22217;-85
2023/11/15 18:33:08;;;;;;;6.80;3.80;;;;;;;7.85;100.00;98614.04;272393;1272;22220;-86
2023/11/15 18:39:14;;;;;;;6.70;3.40;;;;;;;7.82;100.00;98621.55;272382;1266;22334;-85
2023/11/15 18:45:17;;;;;;;8.20;3.60;;;;;;;7.79;100.00;98625.84;272345;1257;22405;-85
2023/11/15 18:51:40;;;;;;;7.10;3.20;;;;;;;7.75;100.00;98640.42;272649;1272;23206;-85
2023/11/15 18:57:43;;;;;;;11.70;4.40;;;;;;;7.73;100.00;98654.64;272247;1272;23317;-85
2023/11/15 19:03:52;;;;;;;14.10;4.90;;;;;;;7.72;100.00;98665.67;272391;1272;22295;-86
2023/11/15 19:10:21;;;;;;;9.60;3.90;;;;;;;7.69;100.00;98682.38;271458;1272;22869;-86
2023/11/15 19:16:27;;;;;;;5.70;3.30;;;;;;;7.66;100.00;98692.73;272446;1262;22320;-87
2023/11/15 19:22:50;;;;;;;7.10;3.30;;;;;;;7.61;100.00;98693.59;272221;1272;23081;-87
2023/11/15 19:28:51;;;;;;;6.90;3.50;;;;;;;7.56;100.00;98698.39;272219;1272;22427;-86
2023/11/15 19:35:19;;;;;;;5.80;3.40;;;;;;;7.53;100.00;98704.48;272187;1272;22512;-86
2023/11/15 19:41:28;;;;;;;8.00;4.10;;;;;;;7.49;100.00;98712.27;272403;1272;22252;-86
2023/11/15 19:47:31;;;;;;;5.80;3.70;;;;;;;7.44;100.00;98718.02;272256;1272;22403;-87
2023/11/15 19:53:33;;;;;;;6.80;3.80;;;;;;;7.40;100.00;98719.80;272607;1269;22214;-86
2023/11/15 19:59:35;;;;;;;6.20;3.40;;;;;;;7.35;100.00;98723.05;272574;1269;22228;-85
2023/11/15 20:05:40;;;;;;;7.80;4.10;;;;;;;7.29;100.00;98723.57;272566;1269;22218;-86
2023/11/15 20:11:45;;;;;;;9.60;3.90;;;;;;;7.25;100.00;98736.00;272468;1269;22731;-86
2023/11/15 20:17:47;;;;;;;11.90;4.30;;;;;;;7.22;100.00;98743.63;270938;1270;22706;-85
2023/11/15 20:23:49;;;;;;;12.70;5.20;;;;;;;7.21;100.00;98747.13;270874;1269;22547;-87
2023/11/15 20:29:51;;;;;;;15.10;6.00;;;;;;;7.20;100.00;98753.18;271528;1270;22197;-85
2023/11/15 20:35:54;;;;;;;12.00;5.20;;;;;;;7.19;100.00;98758.34;272635;1265;22191;-88
2023/11/15 20:41:57;;;;;;;9.70;4.60;;;;;;;7.16;100.00;98767.40;272686;1269;22296;-85
2023/11/15 20:48:01;;;;;;;8.00;4.60;;;;;;;7.17;100.00;98769.05;272749;1269;22456;-85
2023/11/15 20:54:08;;;;;;;11.60;5.80;;;;;;;7.19;100.00;98771.11;271999;1270;22281;-85
2023/11/15 21:00:13;;;;;;;;;;;;;;;7.21;100.00;98768.36;272068;1270;22474;-87
2023/11/15 21:06:30;;;;;;;16.80;4.90;;;;;;;7.17;100.00;98763.70;270969;1269;24169;-86
2023/11/15 21:12:32;;;;;;;8.10;4.80;;;;;;;7.10;100.00;98763.85;272515;1269;23521;-85
2023/11/15 21:18:35;;;;;;;9.40;5.20;;;;;;;7.02;100.00;98764.74;270655;1270;27544;-85
2023/11/15 21:24:37;;;;;;;8.30;4.40;;;;;;;6.95;100.00;98771.61;271567;1270;23189;-87
2023/11/15 21:30:41;;;;;;;13.20;5.00;;;;;;;6.92;100.00;98784.77;271479;1270;374792;-85
2023/11/15 21:36:44;;;;;;;8.80;5.00;;;;;;;6.90;100.00;98792.95;272660;1263;22207;-86
2023/11/15 21:42:47;;;;;;;9.70;4.90;;;;;;;6.92;100.00;98800.00;271227;1271;22570;-86
2023/11/15 21:48:51;;;;;;;10.10;4.80;;;;;;;6.93;100.00;98803.98;271797;1270;22210;-86
2023/11/15 21:55:13;;;;;;;13.10;5.50;;;;;;;6.89;100.00;98811.29;272299;1270;22192;-87
2023/11/15 22:01:15;;;;;;;14.20;5.00;;;;;;;6.84;100.00;98812.02;273165;1270;22146;-85
2023/11/15 22:07:16;;;;;;;11.70;5.20;;;;;;;6.79;100.00;98813.70;271699;1270;22302;-87
2023/11/15 22:13:18;;;;;;;16.70;4.90;;;;;;;6.74;100.00;98820.19;272757;1271;22201;-86
2023/11/15 22:19:20;;;;;;;11.70;4.20;;;;;;;6.72;100.00;98824.41;272602;1269;22552;-85
2023/11/15 22:25:22;;;;;;;9.60;4.60;;;;;;;6.73;100.00;98825.37;272538;1270;22857;-86
2023/11/15 22:31:26;;;;;;;9.70;3.90;;;;;;;6.75;100.00;98833.96;272961;1265;22205;-86
2023/11/15 22:37:27;;;;;;;11.90;4.60;;;;;;;6.77;100.00;98840.94;272997;1270;22407;-85
2023/11/15 22:43:30;;;;;;;10.30;5.40;;;;;;;6.78;100.00;98847.25;273637;1263;22373;-86
2023/11/15 22:49:31;;;;;;;8.10;4.80;;;;;;;6.77;100.00;98854.91;273090;1270;22335;-86
2023/11/15 22:55:36;;;;;;;8.10;4.60;;;;;;;6.72;100.00;98854.27;273148;1269;22901;-87
2023/11/15 23:01:41;;;;;;;5.80;3.50;;;;;;;6.63;100.00;98856.05;272393;1269;22270;-86
2023/11/15 23:07:42;;;;;;;7.50;4.00;;;;;;;6.53;100.00;98861.02;273100;1269;22457;-85
2023/11/15 23:13:45;;;;;;;7.50;3.40;;;;;;;6.48;100.00;98866.58;272963;1269;22386;-86
2023/11/15 23:19:50;;;;;;;7.20;3.50;;;;;;;6.47;100.00;98866.23;273040;1269;22341;-88
2023/11/15 23:25:52;;;;;;;6.80;4.20;;;;;;;6.45;100.00;98868.91;272496;1270;22193;-84
2023/11/15 23:31:55;;;;;;;6.50;3.70;;;;;;;6.43;100.00;98875.16;272917;1270;23428;-84
2023/11/15 23:37:58;;;;;;;9.40;5.20;;;;;;;6.43;100.00;98879.48;273148;1272;22318;-84
2023/11/15 23:44:02;;;;;;;7.20;4.30;;;;;;;6.42;100.00;98885.16;272623;1272;22551;-86
2023/11/15 23:50:05;;;;;;;6.20;4.10;;;;;;;6.41;100.00;98891.09;273016;1270;23815;-85
2023/11/15 23:56:08;;;;;;;5.40;3.60;;;;;;;6.37;100.00;98890.23;272154;1270;22193;-85
